createdAt,value
2022-09-23T00:01:33.133Z,14.74
2022-09-23T00:04:01.104Z,14.80
2022-09-23T00:06:30.264Z,14.80
2022-09-23T00:08:58.059Z,14.80
2022-09-23T00:11:28.803Z,14.80
2022-09-23T00:14:00.119Z,14.64
2022-09-23T00:16:34.373Z,14.50
2022-09-23T00:19:06.527Z,14.38
2022-09-23T00:21:34.255Z,14.36
2022-09-23T00:24:02.529Z,14.40
2022-09-23T00:26:30.661Z,14.40
2022-09-23T00:28:58.753Z,14.40
2022-09-23T00:31:28.994Z,14.42
2022-09-23T00:34:02.105Z,14.40
2022-09-23T00:36:32.651Z,14.40
2022-09-23T00:39:00.617Z,14.30
2022-09-23T00:41:28.536Z,14.30
2022-09-23T00:44:02.390Z,14.20
2022-09-23T00:46:37.116Z,14.20
2022-09-23T00:49:26.946Z,14.20
2022-09-23T00:52:06.145Z,14.10
2022-09-23T00:54:34.091Z,14.10
2022-09-23T00:57:05.878Z,14.10
2022-09-23T00:59:35.821Z,14.10
2022-09-23T01:02:09.473Z,14.10
2022-09-23T01:04:38.067Z,14.10
2022-09-23T01:07:05.869Z,14.00
2022-09-23T01:09:34.012Z,14.00
2022-09-23T01:12:10.257Z,14.10
2022-09-23T01:14:59.584Z,14.10
2022-09-23T01:17:39.551Z,14.10
2022-09-23T01:20:39.670Z,14.10
2022-09-23T01:24:03.458Z,14.10
2022-09-23T01:26:49.364Z,14.10
2022-09-23T01:29:39.500Z,14.00
2022-09-23T01:32:47.283Z,14.00
2022-09-23T01:35:20.610Z,13.90
2022-09-23T01:38:00.154Z,13.90
2022-09-23T01:40:42.708Z,13.90
2022-09-23T01:43:33.903Z,13.88
2022-09-23T01:46:10.057Z,13.90
2022-09-23T01:48:54.246Z,13.90
2022-09-23T01:51:38.823Z,13.88
2022-09-23T01:54:18.507Z,13.90
2022-09-23T01:57:01.744Z,13.90
2022-09-23T01:59:43.613Z,13.80
2022-09-23T02:02:16.988Z,13.80
2022-09-23T02:05:22.081Z,13.80
2022-09-23T02:08:09.020Z,13.72
2022-09-23T02:10:45.762Z,13.70
2022-09-23T02:13:34.765Z,13.70
2022-09-23T02:16:16.347Z,13.70
2022-09-23T02:18:53.322Z,13.70
2022-09-23T02:21:29.672Z,13.60
2022-09-23T02:24:15.190Z,13.60
2022-09-23T02:27:01.652Z,13.70
2022-09-23T02:30:16.495Z,13.70
2022-09-23T02:33:20.428Z,13.80
2022-09-23T02:36:08.170Z,13.70
2022-09-23T02:38:53.152Z,13.70
2022-09-23T02:41:34.806Z,13.58
2022-09-23T02:44:12.751Z,13.50
2022-09-23T02:46:47.023Z,13.50
2022-09-23T02:49:31.386Z,13.50
2022-09-23T02:52:04.795Z,13.60
2022-09-23T02:54:35.445Z,13.64
2022-09-23T02:57:06.830Z,13.60
2022-09-23T02:59:39.606Z,13.60
2022-09-23T03:02:44.799Z,13.50
2022-09-23T03:05:32.666Z,13.50
2022-09-23T03:08:43.542Z,13.60
2022-09-23T03:11:13.760Z,13.60
2022-09-23T03:13:53.618Z,13.70
2022-09-23T03:16:44.091Z,13.70
2022-09-23T03:19:33.328Z,13.70
2022-09-23T03:22:35.173Z,13.60
2022-09-23T03:25:10.992Z,13.60
2022-09-23T03:27:42.510Z,13.60
2022-09-23T03:30:13.269Z,13.60
2022-09-23T03:32:47.356Z,13.50
2022-09-23T03:35:15.271Z,13.40
2022-09-23T03:38:17.547Z,13.40
2022-09-23T03:40:50.979Z,13.36
2022-09-23T03:43:19.355Z,13.32
2022-09-23T03:45:48.038Z,13.30
2022-09-23T03:48:16.006Z,13.30
2022-09-23T03:50:44.563Z,13.20
2022-09-23T03:53:14.290Z,13.30
2022-09-23T03:55:43.228Z,13.30
2022-09-23T03:58:11.330Z,13.30
2022-09-23T04:00:39.626Z,13.30
2022-09-23T04:03:11.599Z,13.30
2022-09-23T04:05:39.864Z,13.28
2022-09-23T04:08:08.004Z,13.22
2022-09-23T04:10:36.183Z,13.20
2022-09-23T04:13:03.936Z,13.20
2022-09-23T04:15:31.689Z,13.20
2022-09-23T04:17:59.327Z,13.20
2022-09-23T04:20:29.119Z,13.20
2022-09-23T04:22:58.745Z,13.26
2022-09-23T04:25:26.457Z,13.22
2022-09-23T04:27:55.175Z,13.30
2022-09-23T04:30:23.026Z,13.30
2022-09-23T04:32:55.421Z,13.30
2022-09-23T04:35:23.294Z,13.38
2022-09-23T04:37:52.385Z,13.32
2022-09-23T04:40:20.150Z,13.30
2022-09-23T04:42:48.006Z,13.30
2022-09-23T04:45:16.456Z,13.30
2022-09-23T04:47:44.118Z,13.34
2022-09-23T04:50:14.868Z,13.30
2022-09-23T04:52:43.717Z,13.30
2022-09-23T04:55:11.555Z,13.30
2022-09-23T04:57:39.675Z,13.30
2022-09-23T05:00:09.076Z,13.30
2022-09-23T05:02:48.061Z,13.30
2022-09-23T05:05:27.053Z,13.40
2022-09-23T05:07:56.471Z,13.40
2022-09-23T05:10:24.214Z,13.50
2022-09-23T05:12:56.921Z,13.54
2022-09-23T05:15:25.155Z,13.60
2022-09-23T05:17:53.278Z,13.50
2022-09-23T05:20:21.638Z,13.40
2022-09-23T05:22:49.877Z,13.40
2022-09-23T05:25:17.887Z,13.40
2022-09-23T05:27:45.679Z,13.36
2022-09-23T05:30:13.635Z,13.30
2022-09-23T05:32:41.519Z,13.30
2022-09-23T05:35:09.386Z,13.30
2022-09-23T05:37:39.257Z,13.30
2022-09-23T05:40:07.656Z,13.30
2022-09-23T05:42:36.364Z,13.30
2022-09-23T05:45:07.683Z,13.30
2022-09-23T05:47:39.997Z,13.20
2022-09-23T05:50:10.403Z,13.20
2022-09-23T05:52:38.161Z,13.30
2022-09-23T05:55:07.097Z,13.30
2022-09-23T05:57:35.357Z,13.30
2022-09-23T06:00:04.892Z,13.30
2022-09-23T06:02:33.157Z,13.30
2022-09-23T06:05:01.158Z,13.40
2022-09-23T06:07:31.855Z,13.40
2022-09-23T06:09:59.692Z,13.40
2022-09-23T06:12:28.404Z,13.50
2022-09-23T06:14:56.177Z,13.50
2022-09-23T06:17:23.865Z,13.60
2022-09-23T06:19:51.992Z,13.60
2022-09-23T06:22:25.614Z,13.50
2022-09-23T06:24:53.532Z,13.50
2022-09-23T06:27:23.097Z,13.40
2022-09-23T06:29:52.587Z,13.50
2022-09-23T06:32:20.789Z,13.50
2022-09-23T06:34:51.902Z,13.50
2022-09-23T06:37:20.800Z,13.50
2022-09-23T06:39:49.392Z,13.50
2022-09-23T06:42:17.426Z,13.60
2022-09-23T06:44:45.126Z,13.60
2022-09-23T06:47:12.934Z,13.60
2022-09-23T06:49:41.766Z,13.52
2022-09-23T06:52:10.107Z,13.58
2022-09-23T06:54:39.117Z,13.58
2022-09-23T06:57:07.192Z,13.60
2022-09-23T06:59:35.586Z,13.60
2022-09-23T07:02:03.471Z,13.60
2022-09-23T07:04:31.538Z,13.66
2022-09-23T07:06:59.300Z,13.70
2022-09-23T07:09:29.140Z,13.74
2022-09-23T07:11:57.217Z,13.80
2022-09-23T07:14:25.357Z,13.80
2022-09-23T07:16:54.326Z,13.70
2022-09-23T07:19:22.128Z,13.70
2022-09-23T07:21:49.828Z,13.70
2022-09-23T07:24:18.121Z,13.70
2022-09-23T07:26:45.938Z,13.70
2022-09-23T07:29:15.375Z,13.70
2022-09-23T07:31:43.409Z,13.80
2022-09-23T07:34:11.914Z,13.80
2022-09-23T07:36:41.067Z,13.80
2022-09-23T07:39:12.149Z,13.90
2022-09-23T07:41:44.411Z,13.90
2022-09-23T07:44:13.298Z,14.00
2022-09-23T07:46:41.554Z,14.00
2022-09-23T07:49:10.795Z,14.04
2022-09-23T07:51:41.362Z,14.00
2022-09-23T07:54:14.762Z,14.00
2022-09-23T07:56:44.461Z,14.00
2022-09-23T07:59:18.573Z,14.00
2022-09-23T08:01:52.852Z,13.90
2022-09-23T08:04:30.982Z,13.92
2022-09-23T08:07:05.717Z,13.90
2022-09-23T08:09:43.191Z,13.92
2022-09-23T08:12:16.468Z,13.90
2022-09-23T08:14:45.408Z,13.90
2022-09-23T08:17:13.917Z,13.90
2022-09-23T08:19:42.224Z,13.90
2022-09-23T08:22:10.192Z,13.90
2022-09-23T08:24:38.261Z,13.92
2022-09-23T08:27:06.385Z,14.00
2022-09-23T08:29:35.182Z,14.00
2022-09-23T08:32:03.650Z,14.04
2022-09-23T08:34:31.688Z,14.10
2022-09-23T08:36:59.750Z,14.10
2022-09-23T08:39:27.516Z,14.10
2022-09-23T08:42:23.875Z,14.10
2022-09-23T08:45:01.966Z,14.10
2022-09-23T08:48:02.283Z,14.20
2022-09-23T08:51:01.624Z,14.20
2022-09-23T08:53:39.703Z,14.20
2022-09-23T08:56:22.407Z,14.14
2022-09-23T08:59:27.078Z,14.16
2022-09-23T09:02:22.632Z,14.20
2022-09-23T09:05:00.579Z,14.20
2022-09-23T09:07:37.498Z,14.20
2022-09-23T09:10:38.618Z,14.20
2022-09-23T09:13:32.739Z,14.20
2022-09-23T09:17:01.263Z,14.20
2022-09-23T09:19:51.972Z,14.20
2022-09-23T09:22:40.095Z,14.22
2022-09-23T09:25:54.527Z,14.30
2022-09-23T09:28:28.000Z,14.30
2022-09-23T09:31:01.844Z,14.28
2022-09-23T09:34:03.472Z,14.22
2022-09-23T09:36:47.264Z,14.28
2022-09-23T09:39:16.476Z,14.30
2022-09-23T09:41:51.926Z,14.30
2022-09-23T09:44:31.998Z,14.30
2022-09-23T09:47:29.062Z,14.30
2022-09-23T09:50:09.080Z,14.24
2022-09-23T09:52:38.271Z,14.30
2022-09-23T09:55:14.921Z,14.28
2022-09-23T09:58:05.929Z,14.30
2022-09-23T10:00:42.805Z,14.30
2022-09-23T10:03:26.450Z,14.30
2022-09-23T10:05:57.934Z,14.30
2022-09-23T10:08:35.268Z,14.30
2022-09-23T10:11:23.707Z,14.30
2022-09-23T10:14:18.991Z,14.30
2022-09-23T10:17:05.607Z,14.36
2022-09-23T10:19:43.955Z,14.30
2022-09-23T10:22:26.350Z,14.30
2022-09-23T10:24:57.474Z,14.40
2022-09-23T10:27:35.899Z,14.38
2022-09-23T10:30:27.553Z,14.40
2022-09-23T10:32:57.252Z,14.40
2022-09-23T10:35:28.279Z,14.40
2022-09-23T10:38:00.394Z,14.50
2022-09-23T10:40:59.819Z,14.50
2022-09-23T10:44:11.781Z,14.58
2022-09-23T10:47:04.182Z,14.60
2022-09-23T10:50:08.191Z,14.60
2022-09-23T10:52:58.033Z,14.64
2022-09-23T10:56:03.758Z,14.60
2022-09-23T10:59:14.340Z,14.70
2022-09-23T11:01:59.304Z,14.66
2022-09-23T11:04:52.683Z,14.62
2022-09-23T11:07:38.885Z,14.70
2022-09-23T11:10:35.241Z,14.70
2022-09-23T11:13:33.111Z,14.74
2022-09-23T11:16:12.753Z,14.80
2022-09-23T11:19:17.374Z,14.80
2022-09-23T11:22:23.487Z,14.80
2022-09-23T11:25:30.383Z,14.80
2022-09-23T11:28:17.861Z,14.88
2022-09-23T11:31:31.693Z,14.80
2022-09-23T11:34:52.699Z,14.80
2022-09-23T11:37:30.487Z,14.70
2022-09-23T11:40:15.583Z,14.70
2022-09-23T11:43:33.623Z,14.60
2022-09-23T11:46:23.674Z,14.60
2022-09-23T11:49:14.257Z,14.58
2022-09-23T11:52:06.448Z,14.50
2022-09-23T11:54:50.191Z,14.50
2022-09-23T11:57:47.072Z,14.42
2022-09-23T12:00:28.159Z,14.40
2022-09-23T12:03:30.441Z,14.40
2022-09-23T12:06:12.610Z,14.40
2022-09-23T12:08:40.668Z,14.40
2022-09-23T12:11:39.648Z,14.40
2022-09-23T12:14:41.805Z,14.40
2022-09-23T12:18:10.858Z,14.40
2022-09-23T12:21:05.768Z,14.34
2022-09-23T12:24:30.225Z,14.30
2022-09-23T12:27:07.215Z,14.30
2022-09-23T12:29:37.680Z,14.30
2022-09-23T12:32:10.199Z,14.30
2022-09-23T12:34:49.336Z,14.30
2022-09-23T12:37:38.142Z,14.30
2022-09-23T12:40:31.229Z,14.30
2022-09-23T12:43:01.280Z,14.30
2022-09-23T12:45:34.180Z,14.30
2022-09-23T12:48:26.910Z,14.30
2022-09-23T12:51:17.442Z,14.20
2022-09-23T12:53:53.195Z,14.20
2022-09-23T12:56:31.523Z,14.20
2022-09-23T12:59:14.250Z,14.20
2022-09-23T13:01:42.909Z,14.20
2022-09-23T13:04:53.820Z,14.20
2022-09-23T13:07:34.548Z,14.20
2022-09-23T13:10:34.053Z,14.30
2022-09-23T13:13:05.430Z,14.30
2022-09-23T13:15:37.701Z,14.30
2022-09-23T13:18:24.243Z,14.34
2022-09-23T13:20:56.896Z,14.40
2022-09-23T13:23:33.167Z,14.40
2022-09-23T13:26:12.812Z,14.40
2022-09-23T13:28:56.034Z,14.40
2022-09-23T13:31:24.197Z,14.50
2022-09-23T13:34:03.763Z,14.44
2022-09-23T13:36:46.532Z,14.50
2022-09-23T13:39:22.765Z,14.50
2022-09-23T13:41:56.469Z,14.50
2022-09-23T13:44:24.897Z,14.50
2022-09-23T13:47:01.010Z,14.50
2022-09-23T13:49:35.469Z,14.50
2022-09-23T13:52:04.221Z,14.50
2022-09-23T13:54:49.867Z,14.50
2022-09-23T13:57:34.140Z,14.50
2022-09-23T14:00:18.691Z,14.50
2022-09-23T14:02:47.505Z,14.50
2022-09-23T14:05:33.179Z,14.50
2022-09-23T14:08:02.214Z,14.50
2022-09-23T14:10:31.325Z,14.50
2022-09-23T14:12:59.781Z,14.50
2022-09-23T14:15:28.401Z,14.50
2022-09-23T14:18:07.885Z,14.50
2022-09-23T14:20:50.234Z,14.50
2022-09-23T14:23:19.109Z,14.50
2022-09-23T14:25:55.221Z,14.50
2022-09-23T14:28:27.754Z,14.50
2022-09-23T14:30:58.750Z,14.50
2022-09-23T14:33:32.496Z,14.50
2022-09-23T14:36:30.083Z,14.50
2022-09-23T14:39:12.587Z,14.46
2022-09-23T14:41:48.206Z,14.42
2022-09-23T14:44:25.204Z,14.40
2022-09-23T14:46:59.342Z,14.50
2022-09-23T14:49:28.138Z,14.50
2022-09-23T14:52:00.815Z,14.50
2022-09-23T14:54:44.091Z,14.50
2022-09-23T14:57:25.922Z,14.50
2022-09-23T15:00:09.289Z,14.50
2022-09-23T15:02:40.276Z,14.50
2022-09-23T15:05:18.521Z,14.50
2022-09-23T15:07:56.604Z,14.50
2022-09-23T15:10:33.772Z,14.50
2022-09-23T15:13:18.170Z,14.50
2022-09-23T15:15:47.354Z,14.50
2022-09-23T15:18:25.594Z,14.50
2022-09-23T15:21:02.910Z,14.50
2022-09-23T15:23:41.816Z,14.50
2022-09-23T15:26:25.868Z,14.50
2022-09-23T15:28:58.521Z,14.58
2022-09-23T15:31:26.806Z,14.60
2022-09-23T15:33:56.044Z,14.60
2022-09-23T15:36:27.989Z,14.60
2022-09-23T15:39:05.626Z,14.60
2022-09-23T15:41:34.031Z,14.60
2022-09-23T15:44:15.665Z,14.60
2022-09-23T15:46:52.222Z,14.68
2022-09-23T15:49:31.947Z,14.70
2022-09-23T15:52:02.224Z,14.70
2022-09-23T15:54:34.688Z,14.70
2022-09-23T15:57:02.766Z,14.80
2022-09-23T15:59:31.431Z,14.80
2022-09-23T16:02:06.785Z,14.80
2022-09-23T16:04:36.011Z,14.80
2022-09-23T16:07:05.869Z,14.80
2022-09-23T16:09:33.851Z,14.86
2022-09-23T16:12:03.342Z,14.90
2022-09-23T16:14:31.162Z,14.90
2022-09-23T16:16:58.920Z,15.00
2022-09-23T16:19:26.920Z,15.00
2022-09-23T16:21:54.637Z,15.00
2022-09-23T16:24:27.363Z,14.90
2022-09-23T16:27:00.018Z,14.90
2022-09-23T16:29:31.014Z,14.90
2022-09-23T16:32:00.969Z,14.80
2022-09-23T16:34:29.620Z,14.90
2022-09-23T16:36:57.329Z,14.90
2022-09-23T16:39:25.143Z,14.90
2022-09-23T16:41:53.023Z,14.90
2022-09-23T16:44:22.243Z,15.00
2022-09-23T16:46:50.753Z,15.00
2022-09-23T16:49:19.035Z,15.10
2022-09-23T16:51:48.293Z,15.00
2022-09-23T16:54:17.420Z,15.00
2022-09-23T16:56:45.864Z,14.92
2022-09-23T16:59:16.060Z,15.00
2022-09-23T17:02:03.384Z,14.94
2022-09-23T17:04:32.616Z,14.98
2022-09-23T17:07:00.617Z,14.90
2022-09-23T17:09:30.311Z,14.90
2022-09-23T17:12:36.754Z,14.90
2022-09-23T17:15:07.595Z,14.84
2022-09-23T17:17:37.552Z,14.90
2022-09-23T17:20:08.912Z,14.90
2022-09-23T17:22:38.367Z,14.90
2022-09-23T17:25:07.458Z,14.90
2022-09-23T17:27:37.302Z,14.90
2022-09-23T17:30:06.082Z,14.80
2022-09-23T17:32:34.239Z,14.80
2022-09-23T17:35:04.833Z,14.70
2022-09-23T17:37:33.372Z,14.70
2022-09-23T17:40:02.230Z,14.60
2022-09-23T17:42:33.449Z,14.60
2022-09-23T17:45:02.277Z,14.60
2022-09-23T17:47:33.370Z,14.60
2022-09-23T17:50:02.064Z,14.60
2022-09-23T17:52:30.059Z,14.60
2022-09-23T17:54:57.733Z,14.70
2022-09-23T17:57:25.820Z,14.60
2022-09-23T17:59:53.894Z,14.50
2022-09-23T18:02:25.678Z,14.50
2022-09-23T18:04:53.985Z,14.58
2022-09-23T18:07:21.785Z,14.60
2022-09-23T18:09:49.543Z,14.58
2022-09-23T18:12:17.338Z,14.50
2022-09-23T18:14:45.366Z,14.50
2022-09-23T18:17:14.050Z,14.42
2022-09-23T18:19:42.589Z,14.40
2022-09-23T18:22:10.369Z,14.40
2022-09-23T18:24:41.167Z,14.40
2022-09-23T18:27:09.667Z,14.36
2022-09-23T18:29:37.379Z,14.30
2022-09-23T18:32:05.152Z,14.30
2022-09-23T18:34:35.533Z,14.40
2022-09-23T18:37:06.340Z,14.40
2022-09-23T18:39:43.482Z,14.32
2022-09-23T18:42:12.052Z,14.30
2022-09-23T18:44:40.787Z,14.22
2022-09-23T18:47:28.645Z,14.20
2022-09-23T18:50:15.841Z,14.10
2022-09-23T18:52:44.474Z,14.10
2022-09-23T18:55:12.742Z,14.00
2022-09-23T18:57:42.480Z,14.00
2022-09-23T19:00:11.425Z,14.00
2022-09-23T19:02:39.597Z,14.00
2022-09-23T19:05:09.464Z,14.00
2022-09-23T19:07:37.332Z,13.90
2022-09-23T19:10:05.989Z,13.80
2022-09-23T19:12:34.610Z,13.74
2022-09-23T19:15:04.953Z,13.70
2022-09-23T19:17:34.181Z,13.70
2022-09-23T19:20:02.314Z,13.70
2022-09-23T19:22:31.893Z,13.54
2022-09-23T19:25:06.110Z,13.40
2022-09-23T19:27:35.949Z,13.40
2022-09-23T19:30:05.454Z,13.36
2022-09-23T19:32:34.795Z,13.30
2022-09-23T19:35:03.022Z,13.24
2022-09-23T19:37:31.047Z,13.20
2022-09-23T19:39:58.815Z,13.20
2022-09-23T19:42:28.243Z,13.20
2022-09-23T19:44:56.083Z,13.20
2022-09-23T19:47:24.760Z,13.20
2022-09-23T19:49:52.662Z,13.20
2022-09-23T19:52:20.424Z,13.20
2022-09-23T19:54:48.861Z,13.20
2022-09-23T19:57:19.522Z,13.20
2022-09-23T19:59:47.288Z,13.20
2022-09-23T20:02:15.701Z,13.20
2022-09-23T20:04:43.639Z,13.20
2022-09-23T20:07:11.539Z,13.26
2022-09-23T20:09:39.588Z,13.22
2022-09-23T20:12:08.365Z,13.30
2022-09-23T20:14:36.029Z,13.32
2022-09-23T20:17:04.101Z,13.40
2022-09-23T20:19:32.171Z,13.40
2022-09-23T20:22:18.533Z,13.40
2022-09-23T20:24:56.888Z,13.34
2022-09-23T20:27:25.762Z,13.30
2022-09-23T20:29:53.628Z,13.30
2022-09-23T20:32:22.513Z,13.20
2022-09-23T20:34:51.012Z,13.20
2022-09-23T20:37:25.067Z,13.20
2022-09-23T20:39:53.305Z,13.20
2022-09-23T20:42:24.444Z,13.10
2022-09-23T20:44:52.530Z,13.04
2022-09-23T20:47:24.730Z,13.00
2022-09-23T20:49:53.764Z,13.00
2022-09-23T20:52:22.962Z,13.00
2022-09-23T20:54:53.005Z,13.00
2022-09-23T20:57:21.151Z,13.10
2022-09-23T20:59:49.749Z,13.10
2022-09-23T21:02:17.700Z,13.14
2022-09-23T21:04:45.962Z,13.10
2022-09-23T21:07:13.781Z,13.10
2022-09-23T21:09:42.421Z,13.20
2022-09-23T21:12:10.333Z,13.20
2022-09-23T21:14:38.425Z,13.30
2022-09-23T21:17:07.209Z,13.30
2022-09-23T21:19:37.624Z,13.30
2022-09-23T21:22:05.391Z,13.30
2022-09-23T21:25:03.838Z,13.26
2022-09-23T21:27:23.371Z,13.20
2022-09-23T21:29:51.571Z,13.20
2022-09-23T21:32:19.328Z,13.20
2022-09-23T21:34:47.630Z,13.20
2022-09-23T21:37:15.347Z,13.20
2022-09-23T21:40:03.146Z,13.20
2022-09-23T21:42:30.855Z,13.16
2022-09-23T21:44:58.640Z,13.12
2022-09-23T21:47:26.771Z,13.10
2022-09-23T21:49:54.486Z,13.02
2022-09-23T21:52:22.406Z,13.00
2022-09-23T21:54:50.126Z,13.00
2022-09-23T21:57:17.806Z,13.00
2022-09-23T21:59:45.557Z,12.90
2022-09-23T22:02:13.769Z,12.90
2022-09-23T22:04:41.540Z,12.90
2022-09-23T22:07:10.696Z,12.90
2022-09-23T22:09:40.176Z,12.90
2022-09-23T22:12:11.694Z,12.90
2022-09-23T22:14:40.179Z,12.90
2022-09-23T22:17:11.372Z,12.82
2022-09-23T22:19:45.990Z,12.90
2022-09-23T22:22:18.046Z,12.90
2022-09-23T22:24:48.278Z,12.82
2022-09-23T22:27:19.629Z,12.80
2022-09-23T22:30:09.382Z,12.80
2022-09-23T22:32:54.364Z,12.80
2022-09-23T22:35:22.714Z,12.80
2022-09-23T22:37:50.831Z,12.80
2022-09-23T22:40:18.832Z,12.80
2022-09-23T22:42:46.703Z,12.80
2022-09-23T22:45:17.317Z,12.80
2022-09-23T22:47:46.803Z,12.80
2022-09-23T22:50:15.475Z,12.80
2022-09-23T22:52:44.906Z,12.80
2022-09-23T22:55:13.339Z,12.82
2022-09-23T22:57:41.943Z,12.80
2022-09-23T23:00:12.751Z,12.80
2022-09-23T23:02:42.813Z,12.70
2022-09-23T23:05:11.466Z,12.70
2022-09-23T23:07:40.575Z,12.70
2022-09-23T23:10:10.536Z,12.70
2022-09-23T23:12:39.537Z,12.70
2022-09-23T23:15:12.766Z,12.70
2022-09-23T23:17:43.495Z,12.70
2022-09-23T23:20:11.582Z,12.70
2022-09-23T23:22:39.657Z,12.70
2022-09-23T23:25:09.818Z,12.70
2022-09-23T23:27:37.656Z,12.70
2022-09-23T23:30:08.846Z,12.74
2022-09-23T23:32:36.937Z,12.78
2022-09-23T23:35:06.036Z,12.72
2022-09-23T23:37:34.346Z,12.70
2022-09-23T23:40:03.433Z,12.70
2022-09-23T23:42:31.582Z,12.70
2022-09-23T23:44:59.717Z,12.70
2022-09-23T23:47:27.584Z,12.70
2022-09-23T23:49:55.312Z,12.66
2022-09-23T23:52:23.112Z,12.60
2022-09-23T23:54:51.826Z,12.60
2022-09-23T23:57:19.522Z,12.58
2022-09-23T23:59:47.321Z,12.50
